Time;durP1;ratioP1;P1;durP2;ratioP2;P2;SDS_P1;SDS_P2;PMS_P1;PMS_P2;Temp;Humidity;BMP_temperature;BMP_pressure;BME280_temperature;BME280_humidity;BME280_pressure;Samples;Min_cycle;Max_cycle;Signal;HPM_P1;HPM_P2
2023/10/31 00:00:45;;;;;;;6.77;6.03;;;13.40;1.00;;;;;;5127943;27;20530;-73
2023/10/31 00:03:12;;;;;;;8.00;6.87;;;13.50;1.00;;;;;;5127363;27;20876;-76
2023/10/31 00:05:40;;;;;;;6.60;6.00;;;13.60;1.00;;;;;;5130505;27;20570;-73
2023/10/31 00:08:07;;;;;;;7.23;6.23;;;13.50;1.00;;;;;;5088441;28;20505;-74
2023/10/31 00:10:34;;;;;;;7.43;5.63;;;13.50;1.00;;;;;;5091016;28;20543;-74
2023/10/31 00:13:01;;;;;;;7.17;6.47;;;13.40;1.00;;;;;;5086943;27;20470;-74
2023/10/31 00:15:30;;;;;;;10.33;6.60;;;13.40;1.00;;;;;;5102982;27;20461;-74
2023/10/31 00:17:57;;;;;;;7.57;6.80;;;13.40;1.00;;;;;;5090120;27;20517;-76
2023/10/31 00:20:24;;;;;;;6.63;6.03;;;13.50;1.00;;;;;;5108959;27;21174;-74
2023/10/31 00:22:52;;;;;;;9.57;6.70;;;13.40;1.00;;;;;;5101769;27;20914;-75
2023/10/31 00:25:19;;;;;;;9.43;6.20;;;13.30;1.00;;;;;;5105254;27;20553;-75
2023/10/31 00:27:46;;;;;;;7.30;6.63;;;13.30;1.00;;;;;;5104920;27;20470;-75
2023/10/31 00:30:13;;;;;;;11.20;7.20;;;13.10;1.00;;;;;;5104002;27;20492;-76
2023/10/31 00:32:40;;;;;;;6.57;5.93;;;13.10;1.00;;;;;;5090094;28;20516;-75
2023/10/31 00:35:08;;;;;;;6.43;5.90;;;13.10;1.00;;;;;;5094516;27;21007;-73
2023/10/31 00:37:35;;;;;;;6.63;6.13;;;13.20;1.00;;;;;;5102463;27;20548;-71
2023/10/31 00:40:04;;;;;;;7.57;6.80;;;13.20;1.00;;;;;;5104662;27;20464;-71
2023/10/31 00:42:31;;;;;;;7.10;6.40;;;13.20;1.00;;;;;;5086277;27;20969;-71
2023/10/31 00:44:57;;;;;;;8.20;6.83;;;13.30;1.00;;;;;;5103666;27;20484;-72
2023/10/31 00:47:24;;;;;;;7.33;6.63;;;13.30;1.00;;;;;;5093865;27;20561;-72
2023/10/31 00:49:53;;;;;;;7.27;6.50;;;13.30;1.00;;;;;;5086036;28;20459;-72
2023/10/31 00:52:19;;;;;;;7.43;5.80;;;13.30;1.00;;;;;;5087559;27;21494;-72
2023/10/31 00:54:46;;;;;;;6.50;5.80;;;13.20;1.00;;;;;;5083469;28;20918;-72
2023/10/31 00:57:14;;;;;;;7.63;6.33;;;13.30;1.00;;;;;;5088628;28;20497;-71
2023/10/31 00:59:42;;;;;;;7.40;6.57;;;13.30;1.00;;;;;;5087403;27;20552;-72
2023/10/31 01:02:09;;;;;;;6.20;5.70;;;13.20;1.00;;;;;;5095148;27;20899;-71
2023/10/31 01:04:37;;;;;;;9.83;6.67;;;13.20;1.00;;;;;;5100120;27;21221;-71
2023/10/31 01:07:04;;;;;;;6.57;5.90;;;13.20;1.00;;;;;;5126008;27;21028;-72
2023/10/31 01:09:31;;;;;;;6.63;6.00;;;13.20;1.00;;;;;;5135910;27;21025;-72
2023/10/31 01:11:58;;;;;;;7.00;6.30;;;13.20;1.00;;;;;;5132457;27;20467;-70
2023/10/31 01:14:26;;;;;;;8.93;7.10;;;13.20;1.00;;;;;;5131143;27;20548;-70
2023/10/31 01:16:53;;;;;;;7.03;6.33;;;13.30;1.00;;;;;;5147884;27;20467;-71
2023/10/31 01:19:20;;;;;;;9.90;8.80;;;13.20;1.00;;;;;;5149549;27;20455;-71
2023/10/31 01:21:47;;;;;;;10.13;8.97;;;13.20;1.00;;;;;;5133593;27;20493;-71
2023/10/31 01:24:14;;;;;;;7.33;6.47;;;13.20;1.00;;;;;;5129084;27;20550;-71
2023/10/31 01:26:41;;;;;;;10.43;6.53;;;13.20;1.00;;;;;;5131199;27;20471;-71
2023/10/31 01:29:08;;;;;;;9.20;6.73;;;13.10;1.00;;;;;;5129745;27;20542;-70
2023/10/31 01:31:37;;;;;;;7.67;6.60;;;13.10;1.00;;;;;;5134046;27;20542;-70
2023/10/31 01:34:04;;;;;;;6.93;6.27;;;13.00;1.00;;;;;;5133367;27;20464;-70
2023/10/31 01:36:30;;;;;;;8.70;7.00;;;13.00;1.00;;;;;;5132508;27;20542;-72
2023/10/31 01:38:58;;;;;;;6.70;6.10;;;13.00;1.00;;;;;;5130131;27;20482;-72
2023/10/31 01:41:25;;;;;;;8.03;7.27;;;13.00;1.00;;;;;;5152254;27;20451;-70
2023/10/31 01:43:52;;;;;;;10.10;6.67;;;12.90;1.00;;;;;;5145253;27;20464;-68
2023/10/31 01:46:19;;;;;;;8.33;7.47;;;12.90;1.00;;;;;;5133966;27;22113;-68
2023/10/31 01:48:48;;;;;;;9.20;7.10;;;12.90;1.00;;;;;;5134059;27;20988;-69
2023/10/31 01:51:15;;;;;;;7.10;6.50;;;12.90;1.00;;;;;;5128606;27;20459;-70
2023/10/31 01:53:42;;;;;;;7.27;6.47;;;12.90;1.00;;;;;;5145887;27;20851;-69
2023/10/31 01:56:09;;;;;;;8.70;7.03;;;12.90;1.00;;;;;;5144519;27;20498;-70
2023/10/31 01:58:37;;;;;;;9.00;7.23;;;12.90;1.00;;;;;;5150252;27;20545;-70
2023/10/31 02:01:06;;;;;;;10.13;8.00;;;12.90;1.00;;;;;;5147791;27;20464;-69
2023/10/31 02:03:34;;;;;;;7.27;6.57;;;12.90;1.00;;;;;;5138868;27;20964;-70
2023/10/31 02:06:02;;;;;;;7.70;7.00;;;12.80;1.00;;;;;;5149611;27;20566;-70
2023/10/31 02:08:29;;;;;;;7.80;7.00;;;12.90;1.00;;;;;;5129925;27;20516;-71
2023/10/31 02:10:56;;;;;;;8.40;6.43;;;12.90;1.00;;;;;;5130309;27;21277;-70
2023/10/31 02:13:23;;;;;;;7.30;6.70;;;12.80;1.00;;;;;;5128568;27;20479;-70
2023/10/31 02:15:50;;;;;;;9.67;7.83;;;12.80;1.00;;;;;;5138760;27;20553;-68
2023/10/31 02:18:17;;;;;;;7.67;6.97;;;12.70;1.00;;;;;;5132093;27;20585;-69
2023/10/31 02:20:44;;;;;;;8.40;7.20;;;12.60;1.00;;;;;;5126829;27;20486;-69
2023/10/31 02:23:12;;;;;;;10.70;7.20;;;12.60;1.00;;;;;;5129781;27;20507;-67
2023/10/31 02:25:39;;;;;;;8.13;7.43;;;12.60;1.00;;;;;;5130802;27;20550;-72
2023/10/31 02:28:06;;;;;;;7.67;7.07;;;12.60;1.00;;;;;;5131981;27;20971;-69
2023/10/31 02:30:35;;;;;;;7.67;6.90;;;12.60;1.00;;;;;;5133730;27;20467;-70
2023/10/31 02:33:02;;;;;;;8.70;6.87;;;12.50;1.00;;;;;;5137737;27;20489;-71
2023/10/31 02:35:29;;;;;;;6.87;6.17;;;12.50;1.00;;;;;;5134326;27;20473;-71
2023/10/31 02:37:56;;;;;;;8.83;8.00;;;12.50;1.00;;;;;;5148249;27;20438;-70
2023/10/31 02:40:24;;;;;;;7.67;7.07;;;12.50;1.00;;;;;;5147456;27;21066;-71
2023/10/31 02:42:51;;;;;;;9.30;7.83;;;12.50;1.00;;;;;;5132491;27;20455;-68
2023/10/31 02:45:18;;;;;;;8.27;7.47;;;12.60;1.00;;;;;;5140129;27;20498;-68
2023/10/31 02:47:45;;;;;;;8.23;7.43;;;12.60;1.00;;;;;;5151283;27;20477;-71
2023/10/31 02:50:12;;;;;;;8.57;7.73;;;12.60;1.00;;;;;;5138777;27;20466;-69
2023/10/31 02:52:39;;;;;;;9.27;8.40;;;12.50;1.00;;;;;;5130728;27;20491;-69
2023/10/31 02:55:06;;;;;;;7.43;6.73;;;12.50;1.00;;;;;;5125687;27;20559;-72
2023/10/31 02:57:35;;;;;;;9.40;7.83;;;12.50;1.00;;;;;;5131791;27;20450;-72
2023/10/31 03:00:02;;;;;;;8.33;7.50;;;12.50;1.00;;;;;;5129789;27;20981;-73
2023/10/31 03:02:29;;;;;;;10.67;7.83;;;12.50;1.00;;;;;;5131127;27;22212;-71
2023/10/31 03:04:56;;;;;;;10.73;7.40;;;12.40;1.00;;;;;;5148710;27;20855;-72
2023/10/31 03:07:23;;;;;;;11.60;7.90;;;12.40;1.00;;;;;;5133204;27;20495;-72
2023/10/31 03:09:50;;;;;;;9.40;8.47;;;12.40;1.00;;;;;;5135987;27;20463;-72
2023/10/31 03:12:17;;;;;;;8.57;7.73;;;12.40;1.00;;;;;;5129839;27;21010;-72
2023/10/31 03:14:45;;;;;;;8.77;7.87;;;12.40;1.00;;;;;;5127547;27;20479;-72
2023/10/31 03:17:12;;;;;;;9.50;8.40;;;12.40;1.00;;;;;;5132649;27;20467;-71
2023/10/31 03:19:39;;;;;;;8.50;7.70;;;12.40;1.00;;;;;;5151385;27;20454;-71
2023/10/31 03:22:06;;;;;;;10.37;8.20;;;12.50;1.00;;;;;;5143361;27;20490;-73
2023/10/31 03:24:33;;;;;;;7.63;6.90;;;12.50;1.00;;;;;;5135474;27;21081;-73
2023/10/31 03:27:00;;;;;;;10.33;7.73;;;12.50;1.00;;;;;;5130467;27;20546;-73
2023/10/31 03:29:26;;;;;;;9.23;8.23;;;12.60;1.00;;;;;;5136062;27;20530;-73
2023/10/31 03:31:55;;;;;;;8.47;7.63;;;12.60;1.00;;;;;;5143467;27;20551;-73
2023/10/31 03:34:21;;;;;;;8.53;7.67;;;12.60;1.00;;;;;;5131650;27;20468;-73
2023/10/31 03:36:48;;;;;;;8.23;7.43;;;12.70;1.00;;;;;;5130117;27;20585;-73
2023/10/31 03:39:15;;;;;;;9.57;8.60;;;12.60;1.00;;;;;;5131873;27;20447;-72
2023/10/31 03:41:42;;;;;;;9.10;8.30;;;12.60;1.00;;;;;;5129960;27;20461;-72
2023/10/31 03:44:09;;;;;;;8.67;7.80;;;12.60;1.00;;;;;;5130982;27;20466;-73
2023/10/31 03:46:36;;;;;;;10.30;9.40;;;12.60;1.00;;;;;;5132163;27;21627;-72
2023/10/31 03:49:07;;;;;;;9.57;8.17;;;12.50;1.00;;;;;;5130865;27;20471;-72
2023/10/31 03:51:34;;;;;;;9.53;8.63;;;12.50;1.00;;;;;;5130728;27;20481;-72
2023/10/31 03:54:01;;;;;;;11.03;9.93;;;12.50;1.00;;;;;;5131562;27;20603;-73
2023/10/31 03:56:28;;;;;;;11.20;8.83;;;12.50;1.00;;;;;;5127842;27;20451;-72
2023/10/31 03:58:55;;;;;;;11.30;10.20;;;12.40;1.00;;;;;;5133666;27;20471;-73
2023/10/31 04:01:21;;;;;;;13.23;10.23;;;12.40;1.00;;;;;;5135234;27;20522;-72
2023/10/31 04:03:48;;;;;;;10.43;9.53;;;12.40;1.00;;;;;;5150804;27;20570;-70
2023/10/31 04:06:17;;;;;;;12.00;10.00;;;12.40;1.00;;;;;;5133550;27;20538;-71
2023/10/31 04:08:44;;;;;;;12.27;9.70;;;12.40;1.00;;;;;;5134685;27;20458;-71
2023/10/31 04:11:11;;;;;;;11.37;10.33;;;12.40;1.00;;;;;;5141629;27;20457;-72
2023/10/31 04:13:37;;;;;;;12.30;11.10;;;12.30;1.00;;;;;;5126942;27;20467;-72
2023/10/31 04:16:05;;;;;;;12.73;11.53;;;12.30;1.00;;;;;;5130741;27;20828;-69
2023/10/31 04:18:32;;;;;;;12.23;11.03;;;12.30;1.00;;;;;;5129450;27;20478;-69
2023/10/31 04:20:59;;;;;;;12.40;11.33;;;12.20;1.00;;;;;;5131671;27;20832;-70
2023/10/31 04:23:27;;;;;;;13.73;12.10;;;12.30;1.00;;;;;;5130498;27;20465;-68
2023/10/31 04:25:54;;;;;;;12.50;11.30;;;12.30;1.00;;;;;;5130096;27;20984;-70
2023/10/31 04:28:20;;;;;;;12.40;11.27;;;12.40;1.00;;;;;;5149694;27;20543;-72
2023/10/31 04:30:47;;;;;;;11.80;10.60;;;12.30;1.00;;;;;;5148863;27;20557;-70
2023/10/31 04:33:14;;;;;;;12.50;10.87;;;12.30;1.00;;;;;;5149211;27;20473;-69
2023/10/31 04:35:41;;;;;;;11.17;10.03;;;12.30;1.00;;;;;;5134566;27;20550;-70
2023/10/31 04:38:08;;;;;;;10.70;9.70;;;12.30;1.00;;;;;;5130087;27;20500;-70
2023/10/31 04:40:36;;;;;;;10.47;9.37;;;12.30;1.00;;;;;;5129950;27;20430;-69
2023/10/31 04:43:03;;;;;;;11.40;10.20;;;12.30;1.00;;;;;;5142467;27;20496;-70
2023/10/31 04:45:30;;;;;;;11.90;10.80;;;12.30;1.00;;;;;;5154845;27;20459;-71
2023/10/31 04:47:57;;;;;;;10.60;9.57;;;12.40;1.00;;;;;;5154173;27;20541;-70
2023/10/31 04:50:24;;;;;;;12.03;10.83;;;12.40;1.00;;;;;;5132839;27;20523;-70
2023/10/31 04:52:51;;;;;;;13.80;12.50;;;12.30;1.00;;;;;;5151721;27;20556;-69
2023/10/31 04:55:18;;;;;;;11.40;10.20;;;12.30;1.00;;;;;;5139946;27;20449;-70
2023/10/31 04:57:46;;;;;;;13.70;12.30;;;12.40;1.00;;;;;;5135515;27;20463;-71
2023/10/31 05:00:14;;;;;;;13.30;11.60;;;12.40;1.00;;;;;;5136502;27;20523;-69
2023/10/31 05:02:41;;;;;;;14.23;12.93;;;12.50;1.00;;;;;;5132684;27;20573;-74
2023/10/31 05:05:08;;;;;;;11.73;10.60;;;12.40;1.00;;;;;;5137879;27;20482;-71
2023/10/31 05:07:35;;;;;;;11.87;10.77;;;12.50;1.00;;;;;;5145462;27;20557;-68
2023/10/31 05:10:02;;;;;;;11.67;10.57;;;12.50;1.00;;;;;;5153380;27;20453;-67
2023/10/31 05:12:29;;;;;;;12.80;11.17;;;12.50;1.00;;;;;;5155373;27;20503;-68
2023/10/31 05:14:57;;;;;;;14.10;10.97;;;12.60;1.00;;;;;;5139652;27;20494;-72
2023/10/31 05:17:24;;;;;;;12.23;11.10;;;12.50;1.00;;;;;;5133624;27;20563;-72
2023/10/31 05:19:51;;;;;;;13.03;11.83;;;12.60;1.00;;;;;;5133261;27;20450;-72
2023/10/31 05:22:18;;;;;;;13.80;12.53;;;12.50;1.00;;;;;;5132259;27;20615;-72
2023/10/31 05:24:44;;;;;;;11.63;10.50;;;12.50;1.00;;;;;;5131924;27;20453;-72
2023/10/31 05:27:11;;;;;;;12.90;11.70;;;12.50;1.00;;;;;;5133068;27;20455;-73
2023/10/31 05:29:40;;;;;;;13.53;10.83;;;12.50;1.00;;;;;;5136173;27;20450;-71
2023/10/31 05:32:08;;;;;;;12.90;11.70;;;12.50;1.00;;;;;;5130576;27;20500;-72
2023/10/31 05:34:35;;;;;;;14.13;11.30;;;12.50;1.00;;;;;;5132997;27;20467;-73
2023/10/31 05:37:05;;;;;;;13.50;12.23;;;12.60;1.00;;;;;;5132595;27;20486;-72
2023/10/31 05:39:32;;;;;;;13.77;12.47;;;12.60;1.00;;;;;;5130445;27;20482;-72
2023/10/31 05:41:59;;;;;;;14.60;13.20;;;12.60;1.00;;;;;;5131414;27;20471;-71
2023/10/31 05:44:26;;;;;;;13.27;11.77;;;12.60;1.00;;;;;;5156827;27;20515;-72
2023/10/31 05:46:53;;;;;;;14.00;12.50;;;12.60;1.00;;;;;;5152019;27;20452;-72
2023/10/31 05:49:22;;;;;;;13.70;12.40;;;12.70;1.00;;;;;;5148348;27;20462;-71
2023/10/31 05:51:51;;;;;;;13.53;12.03;;;12.70;1.00;;;;;;5153414;27;21066;-71
2023/10/31 05:54:18;;;;;;;13.43;12.13;;;12.70;1.00;;;;;;5149541;27;20445;-72
2023/10/31 05:56:45;;;;;;;13.17;11.87;;;12.80;1.00;;;;;;5149117;27;20466;-72
2023/10/31 05:59:13;;;;;;;12.10;11.00;;;12.80;1.00;;;;;;5133985;27;20544;-73
2023/10/31 06:01:39;;;;;;;11.37;10.27;;;12.80;1.00;;;;;;5146161;27;20516;-72
2023/10/31 06:04:06;;;;;;;11.30;10.10;;;12.80;1.00;;;;;;5143491;27;20540;-71
2023/10/31 06:06:39;;;;;;;10.80;9.80;;;12.80;1.00;;;;;;5139940;27;20502;-73
2023/10/31 06:09:06;;;;;;;11.77;10.10;;;12.80;1.00;;;;;;5128604;27;20571;-71
2023/10/31 06:11:33;;;;;;;8.83;8.13;;;12.80;1.00;;;;;;5131115;27;20483;-71
2023/10/31 06:14:00;;;;;;;11.50;10.40;;;12.80;1.00;;;;;;5128518;27;20581;-72
2023/10/31 06:16:27;;;;;;;10.30;9.30;;;12.80;1.00;;;;;;5144052;27;20438;-71
2023/10/31 06:18:54;;;;;;;12.53;11.13;;;12.90;1.00;;;;;;5138805;27;20494;-71
2023/10/31 06:21:21;;;;;;;10.77;9.77;;;13.00;1.00;;;;;;5144270;27;20534;-72
2023/10/31 06:23:50;;;;;;;10.67;9.67;;;12.90;1.00;;;;;;5144843;27;20555;-73
2023/10/31 06:26:17;;;;;;;10.30;9.23;;;12.90;1.00;;;;;;5151970;27;20510;-76
2023/10/31 06:28:43;;;;;;;10.03;9.13;;;12.90;1.00;;;;;;5154186;27;21219;-74
2023/10/31 06:31:10;;;;;;;9.63;8.60;;;12.90;1.00;;;;;;5131712;27;21398;-74
2023/10/31 06:33:37;;;;;;;10.33;9.33;;;13.00;1.00;;;;;;5132286;27;20533;-74
2023/10/31 06:36:06;;;;;;;8.67;7.90;;;13.00;1.00;;;;;;5140203;27;20956;-75
2023/10/31 06:38:33;;;;;;;8.50;7.70;;;13.00;1.00;;;;;;5154841;27;21783;-73
2023/10/31 06:41:01;;;;;;;9.50;8.60;;;12.90;1.00;;;;;;5144987;27;20901;-76
2023/10/31 06:43:28;;;;;;;9.67;8.87;;;12.90;1.00;;;;;;5141170;27;20461;-75
2023/10/31 06:45:56;;;;;;;9.13;8.23;;;13.00;1.00;;;;;;5133444;27;20502;-74
2023/10/31 06:48:23;;;;;;;9.27;8.47;;;13.00;1.00;;;;;;5142407;27;20450;-74
2023/10/31 06:50:50;;;;;;;8.67;7.80;;;13.00;1.00;;;;;;5147169;27;20470;-75
2023/10/31 06:53:17;;;;;;;8.67;7.60;;;13.10;1.00;;;;;;5145379;27;20525;-75
2023/10/31 06:55:44;;;;;;;7.57;6.97;;;13.10;1.00;;;;;;5153193;27;20566;-76
2023/10/31 06:58:12;;;;;;;7.80;7.10;;;13.10;1.00;;;;;;5132550;27;20488;-75
2023/10/31 07:00:39;;;;;;;8.57;7.87;;;13.10;1.00;;;;;;5139468;27;21047;-75
2023/10/31 07:03:09;;;;;;;8.20;7.17;;;13.10;1.00;;;;;;5146771;27;20562;-75
2023/10/31 07:05:36;;;;;;;7.63;6.77;;;13.00;1.00;;;;;;5145129;27;20466;-74
2023/10/31 07:08:03;;;;;;;7.60;6.90;;;13.00;1.00;;;;;;5142389;27;20482;-74
2023/10/31 07:10:30;;;;;;;7.20;6.53;;;13.10;1.00;;;;;;5144620;27;20536;-73
2023/10/31 07:12:58;;;;;;;7.73;7.13;;;13.10;1.00;;;;;;5130526;27;21366;-74
2023/10/31 07:15:26;;;;;;;6.40;5.90;;;13.10;1.00;;;;;;5129651;27;20458;-74
2023/10/31 07:17:55;;;;;;;7.47;6.57;;;13.10;1.00;;;;;;5132284;27;20489;-75
2023/10/31 07:20:22;;;;;;;6.20;5.70;;;13.20;1.00;;;;;;5132423;27;20522;-74
2023/10/31 07:22:48;;;;;;;5.67;5.10;;;13.20;1.00;;;;;;5131963;27;20543;-76
2023/10/31 07:25:15;;;;;;;6.20;5.60;;;13.30;1.00;;;;;;5137720;27;20508;-73
2023/10/31 07:27:43;;;;;;;6.00;5.07;;;13.30;1.00;;;;;;5142171;27;20485;-73
2023/10/31 07:30:11;;;;;;;6.10;5.60;;;13.30;1.00;;;;;;5132480;27;20486;-73
2023/10/31 07:32:39;;;;;;;9.17;6.30;;;13.30;1.00;;;;;;5149706;27;20538;-74
2023/10/31 07:35:07;;;;;;;10.87;9.60;;;13.30;1.00;;;;;;5140790;27;20491;-76
2023/10/31 07:37:34;;;;;;;5.37;4.97;;;13.30;1.00;;;;;;5131560;27;20466;-75
2023/10/31 07:40:01;;;;;;;7.10;5.30;;;13.30;1.00;;;;;;5128813;27;20572;-75
2023/10/31 07:42:27;;;;;;;4.00;3.50;;;13.30;1.00;;;;;;5144050;27;20495;-74
2023/10/31 07:44:54;;;;;;;3.40;3.10;;;13.20;1.00;;;;;;5150477;27;20461;-72
2023/10/31 07:47:23;;;;;;;3.50;3.20;;;13.00;1.00;;;;;;5141332;27;20475;-77
2023/10/31 07:49:53;;;;;;;3.27;3.07;;;12.80;1.00;;;;;;5150241;27;21072;-77
2023/10/31 07:52:20;;;;;;;3.67;3.37;;;12.80;1.00;;;;;;5150699;27;20520;-78
2023/10/31 07:54:47;;;;;;;3.63;3.10;;;12.60;1.00;;;;;;5150105;27;20467;-78
2023/10/31 07:57:14;;;;;;;3.80;3.33;;;12.60;1.00;;;;;;5151372;27;20457;-77
2023/10/31 07:59:41;;;;;;;4.03;3.07;;;12.50;1.00;;;;;;5149521;27;20476;-77
2023/10/31 08:02:08;;;;;;;3.20;2.90;;;12.40;1.00;;;;;;5132315;27;20991;-78
2023/10/31 08:04:35;;;;;;;4.37;2.90;;;12.30;1.00;;;;;;5147723;27;20465;-79
2023/10/31 08:07:06;;;;;;;2.47;2.27;;;12.30;1.00;;;;;;5131851;27;20488;-73
2023/10/31 08:09:33;;;;;;;2.47;2.17;;;12.20;1.00;;;;;;5144910;27;20449;-80
2023/10/31 08:12:00;;;;;;;2.20;2.00;;;12.20;1.00;;;;;;5151630;27;20472;-75
2023/10/31 08:14:27;;;;;;;2.43;2.23;;;12.20;1.00;;;;;;5143295;27;20536;-76
2023/10/31 08:16:54;;;;;;;2.17;2.03;;;12.20;1.00;;;;;;5138322;27;20477;-74
2023/10/31 08:19:21;;;;;;;3.20;2.20;;;12.20;1.00;;;;;;5137624;27;21252;-76
2023/10/31 08:21:48;;;;;;;2.27;2.07;;;12.20;1.00;;;;;;5153954;27;20970;-74
2023/10/31 08:24:16;;;;;;;2.53;1.80;;;12.20;1.00;;;;;;5135590;27;20453;-79
2023/10/31 08:26:43;;;;;;;1.67;1.57;;;12.20;1.00;;;;;;5142395;27;20537;-76
2023/10/31 08:29:09;;;;;;;2.03;1.93;;;12.10;1.00;;;;;;5147854;27;20555;-74
2023/10/31 08:31:37;;;;;;;1.80;1.70;;;12.10;1.00;;;;;;5131880;27;20519;-75
2023/10/31 08:34:04;;;;;;;1.87;1.70;;;12.10;1.00;;;;;;5135302;27;20506;-75
2023/10/31 08:36:31;;;;;;;2.03;1.47;;;12.10;1.00;;;;;;5158239;27;20998;-75
2023/10/31 08:38:57;;;;;;;1.27;1.17;;;12.10;1.00;;;;;;5149101;27;20472;-74
2023/10/31 08:41:26;;;;;;;2.97;1.40;;;12.00;1.00;;;;;;5134797;27;20476;-74
2023/10/31 08:43:53;;;;;;;1.63;1.40;;;12.10;1.00;;;;;;5152122;27;20444;-75
2023/10/31 08:46:21;;;;;;;2.10;1.50;;;12.20;1.00;;;;;;5155324;27;20449;-75
2023/10/31 08:48:48;;;;;;;1.70;1.40;;;12.40;1.00;;;;;;5136017;27;20634;-75
2023/10/31 08:51:15;;;;;;;3.83;1.90;;;12.60;1.00;;;;;;5140943;27;20770;-74
2023/10/31 08:53:42;;;;;;;1.50;1.40;;;12.70;1.00;;;;;;5140570;27;20481;-76
2023/10/31 08:56:09;;;;;;;1.70;1.50;;;12.80;1.00;;;;;;5147025;27;20500;-75
2023/10/31 08:58:37;;;;;;;1.33;1.20;;;13.00;1.00;;;;;;5150049;27;20466;-75
2023/10/31 09:01:04;;;;;;;1.37;1.27;;;13.00;1.00;;;;;;5138504;27;20553;-74
2023/10/31 09:03:33;;;;;;;1.37;1.27;;;13.00;1.00;;;;;;5134504;27;20542;-75
2023/10/31 09:06:00;;;;;;;1.30;1.20;;;13.00;1.00;;;;;;5134491;27;20462;-75
2023/10/31 09:08:29;;;;;;;1.20;1.10;;;13.00;1.00;;;;;;5147079;27;20477;-76
2023/10/31 09:10:55;;;;;;;1.37;1.00;;;13.00;1.00;;;;;;5140275;27;20457;-76
2023/10/31 09:13:22;;;;;;;1.90;1.20;;;12.90;1.00;;;;;;5146849;27;20476;-75
2023/10/31 09:15:51;;;;;;;1.20;1.10;;;12.90;1.00;;;;;;5144111;27;20468;-74
2023/10/31 09:18:18;;;;;;;1.43;0.90;;;12.90;1.00;;;;;;5131395;27;20562;-75
2023/10/31 09:20:44;;;;;;;1.63;0.80;;;12.90;1.00;;;;;;5149942;27;20481;-75
2023/10/31 09:23:14;;;;;;;1.30;1.10;;;12.90;1.00;;;;;;5155705;27;20549;-75
2023/10/31 09:25:41;;;;;;;1.03;0.80;;;13.00;1.00;;;;;;5156533;27;20456;-72
2023/10/31 09:28:08;;;;;;;1.13;1.03;;;13.00;1.00;;;;;;5143095;27;21001;-76
2023/10/31 09:30:35;;;;;;;1.07;0.70;;;13.10;1.00;;;;;;5150701;27;20499;-75
2023/10/31 09:33:04;;;;;;;0.90;0.70;;;13.30;1.00;;;;;;5149603;27;20484;-74
2023/10/31 09:35:31;;;;;;;1.60;0.77;;;13.40;1.00;;;;;;5151877;27;20542;-74
2023/10/31 09:37:58;;;;;;;0.83;0.80;;;13.60;1.00;;;;;;5139950;27;20565;-74
2023/10/31 09:40:25;;;;;;;1.50;0.97;;;13.60;1.00;;;;;;5130866;27;20459;-73
2023/10/31 09:42:52;;;;;;;1.60;1.10;;;13.60;1.00;;;;;;5148683;27;20600;-76
2023/10/31 09:45:19;;;;;;;1.03;1.00;;;13.60;1.00;;;;;;5133142;27;20487;-75
2023/10/31 09:47:46;;;;;;;1.20;1.10;;;13.60;1.00;;;;;;5138154;27;21005;-75
2023/10/31 09:50:15;;;;;;;2.10;1.27;;;13.50;1.00;;;;;;5139734;27;20421;-74
2023/10/31 09:52:42;;;;;;;3.10;1.30;;;13.50;1.00;;;;;;5145342;27;20538;-73
2023/10/31 09:55:10;;;;;;;2.80;1.67;;;13.50;1.00;;;;;;5147005;27;20458;-76
2023/10/31 09:57:37;;;;;;;1.60;1.50;;;13.60;1.00;;;;;;5127736;27;20465;-75
2023/10/31 10:00:04;;;;;;;2.70;1.47;;;13.60;1.00;;;;;;5133348;27;20464;-75
2023/10/31 10:02:31;;;;;;;2.20;1.30;;;13.60;1.00;;;;;;5132598;27;20517;-74
2023/10/31 10:04:59;;;;;;;1.80;1.40;;;13.60;1.00;;;;;;5128730;27;20479;-79
2023/10/31 10:07:28;;;;;;;1.47;1.37;;;13.80;1.00;;;;;;5145093;27;20502;-76
2023/10/31 10:09:58;;;;;;;2.63;1.50;;;13.90;1.00;;;;;;5141914;27;20460;-76
2023/10/31 10:12:25;;;;;;;1.40;1.13;;;13.90;1.00;;;;;;5129395;27;20451;-74
2023/10/31 10:14:53;;;;;;;1.57;1.43;;;13.90;1.00;;;;;;5130806;27;20538;-75
2023/10/31 10:17:22;;;;;;;1.27;1.10;;;13.80;1.00;;;;;;5130455;27;20528;-74
2023/10/31 10:20:05;;;;;;;1.40;1.20;;;13.80;1.00;;;;;;5150887;27;20524;-75
2023/10/31 10:22:33;;;;;;;2.03;1.50;;;13.70;1.00;;;;;;5133892;27;20449;-75
2023/10/31 10:25:00;;;;;;;2.07;1.17;;;13.80;1.00;;;;;;5131134;27;20593;-75
2023/10/31 10:27:27;;;;;;;2.27;1.67;;;13.90;1.00;;;;;;5130635;27;20450;-72
2023/10/31 10:29:54;;;;;;;2.30;1.50;;;14.10;1.00;;;;;;5144535;27;20517;-72
2023/10/31 10:32:21;;;;;;;1.63;1.23;;;14.10;1.00;;;;;;5147238;27;20554;-75
2023/10/31 10:34:48;;;;;;;1.50;1.40;;;14.20;1.00;;;;;;5144310;27;20562;-74
2023/10/31 10:37:15;;;;;;;1.53;1.37;;;14.40;1.00;;;;;;5140284;27;20520;-75
2023/10/31 10:39:49;;;;;;;1.57;1.47;;;14.30;1.00;;;;;;5126812;27;20504;-76
2023/10/31 10:42:19;;;;;;;1.90;1.80;;;14.40;1.00;;;;;;5127358;27;22272;-76
2023/10/31 10:44:48;;;;;;;1.33;1.23;;;14.60;1.00;;;;;;5139790;27;21018;-76
2023/10/31 10:47:16;;;;;;;1.90;1.43;;;14.90;1.00;;;;;;5133097;27;20483;-75
2023/10/31 10:49:45;;;;;;;1.87;1.67;;;15.00;1.00;;;;;;5149289;27;20898;-78
2023/10/31 10:52:23;;;;;;;1.93;1.53;;;15.10;1.00;;;;;;5133264;27;20472;-78
2023/10/31 10:54:56;;;;;;;2.00;1.80;;;15.10;1.00;;;;;;5133677;27;20578;-75
2023/10/31 10:57:33;;;;;;;1.53;1.43;;;15.20;1.00;;;;;;5128707;27;20971;-75
2023/10/31 11:00:04;;;;;;;2.20;1.80;;;15.30;1.00;;;;;;5126579;27;20464;-72
2023/10/31 11:02:31;;;;;;;1.80;1.70;;;15.30;1.00;;;;;;5129550;27;20461;-75
2023/10/31 11:04:59;;;;;;;2.03;1.93;;;15.20;1.00;;;;;;5118067;27;20479;-73
2023/10/31 11:07:28;;;;;;;2.80;1.80;;;15.10;1.00;;;;;;5143935;27;20906;-72
2023/10/31 11:09:58;;;;;;;1.80;1.70;;;15.10;1.00;;;;;;5140772;27;20454;-72
2023/10/31 11:12:26;;;;;;;2.70;1.97;;;15.40;1.00;;;;;;5135382;27;20495;-74
2023/10/31 11:14:53;;;;;;;2.30;2.10;;;15.70;1.00;;;;;;5128504;27;20546;-73
2023/10/31 11:17:27;;;;;;;2.50;2.30;;;15.70;1.00;;;;;;5131322;27;20559;-73
2023/10/31 11:19:56;;;;;;;3.07;2.47;;;15.70;1.00;;;;;;5149956;27;20452;-73
2023/10/31 11:22:23;;;;;;;1.93;1.83;;;15.40;1.00;;;;;;5137332;27;20886;-72
2023/10/31 11:24:50;;;;;;;2.30;2.00;;;15.20;1.00;;;;;;5126756;27;20471;-73
2023/10/31 11:27:19;;;;;;;2.33;2.13;;;15.10;1.00;;;;;;5129786;27;21250;-74
2023/10/31 11:29:46;;;;;;;2.20;2.00;;;15.20;1.00;;;;;;5131763;27;20445;-75
2023/10/31 11:32:15;;;;;;;4.47;2.50;;;15.20;1.00;;;;;;5130450;27;20593;-73
2023/10/31 11:34:43;;;;;;;4.70;2.03;;;15.00;1.00;;;;;;5133315;27;20579;-73
2023/10/31 11:37:26;;;;;;;2.87;2.30;;;14.90;1.00;;;;;;5129103;27;20567;-73
2023/10/31 11:40:22;;;;;;;3.17;1.83;;;14.60;1.00;;;;;;5128263;27;21135;-73
2023/10/31 11:42:51;;;;;;;2.57;2.37;;;14.50;1.00;;;;;;5114921;27;20483;-72
2023/10/31 11:45:28;;;;;;;2.37;2.17;;;14.40;1.00;;;;;;5130124;27;20983;-73
2023/10/31 11:47:55;;;;;;;2.50;2.10;;;14.20;1.00;;;;;;5129900;27;20992;-73
2023/10/31 11:50:23;;;;;;;5.03;1.90;;;14.30;1.00;;;;;;5132539;27;20456;-73
2023/10/31 11:53:01;;;;;;;2.20;1.80;;;14.40;1.00;;;;;;5138529;27;20509;-74
2023/10/31 11:55:28;;;;;;;3.23;2.20;;;14.30;1.00;;;;;;5150246;27;20458;-72
2023/10/31 11:57:56;;;;;;;3.00;1.97;;;14.30;1.00;;;;;;5152023;27;20558;-72
2023/10/31 12:00:24;;;;;;;1.70;1.60;;;14.40;1.00;;;;;;5146192;27;20600;-72
2023/10/31 12:03:01;;;;;;;3.80;1.80;;;14.70;1.00;;;;;;5148894;27;20539;-72
2023/10/31 12:05:28;;;;;;;2.43;1.80;;;15.70;1.00;;;;;;5142699;27;20459;-73
2023/10/31 12:07:57;;;;;;;2.40;2.20;;;16.70;1.00;;;;;;5148887;27;20500;-72
2023/10/31 12:10:25;;;;;;;1.40;1.30;;;16.50;1.00;;;;;;5128444;27;20492;-72
2023/10/31 12:12:52;;;;;;;2.00;1.90;;;15.80;1.00;;;;;;5139112;27;20460;-72
2023/10/31 12:15:21;;;;;;;1.70;1.60;;;15.50;1.00;;;;;;5145992;27;20552;-74
2023/10/31 12:17:48;;;;;;;2.57;1.40;;;15.70;1.00;;;;;;5151351;27;20543;-76
2023/10/31 12:20:16;;;;;;;3.10;1.60;;;15.80;1.00;;;;;;5149056;27;20587;-75
2023/10/31 12:22:44;;;;;;;2.90;2.70;;;15.60;1.00;;;;;;5139433;27;20472;-75
2023/10/31 12:25:12;;;;;;;1.00;0.90;;;15.30;1.00;;;;;;5127760;27;20482;-75
2023/10/31 12:27:46;;;;;;;1.10;1.00;;;14.90;1.00;;;;;;5141728;27;20587;-74
2023/10/31 12:30:15;;;;;;;12.80;2.40;;;14.60;1.00;;;;;;5127082;27;20610;-76
2023/10/31 12:32:44;;;;;;;3.73;1.10;;;14.40;1.00;;;;;;5121911;27;21364;-76
2023/10/31 12:35:16;;;;;;;2.37;2.00;;;14.30;1.00;;;;;;5136856;27;20589;-74
2023/10/31 12:37:46;;;;;;;9.37;2.13;;;14.30;1.00;;;;;;5148671;27;20466;-76
2023/10/31 12:40:16;;;;;;;1.50;1.40;;;14.30;1.00;;;;;;5129406;27;20462;-74
2023/10/31 12:42:44;;;;;;;3.83;1.90;;;14.50;1.00;;;;;;5149370;27;20454;-73
2023/10/31 12:45:12;;;;;;;3.40;1.23;;;14.50;1.00;;;;;;5136644;27;20460;-76
2023/10/31 12:47:39;;;;;;;2.10;1.20;;;14.60;1.00;;;;;;5125319;27;20525;-74
2023/10/31 12:50:13;;;;;;;1.27;1.17;;;14.60;1.00;;;;;;5126355;27;20456;-75
2023/10/31 12:52:48;;;;;;;1.03;0.90;;;14.60;1.00;;;;;;5144514;27;20485;-74
2023/10/31 12:55:16;;;;;;;1.80;0.97;;;14.50;1.00;;;;;;5130386;27;20876;-74